Orbital elements of COSMOS 1275 DEB
| Launched | 3 June 1981 |
| Flight ended | – |
| Launch site | Plesetsk Missile and Space Complex, Russia |
| Owner | Commonwealth of Independent States (former USSR) |
| NORAD ID | 13483 |
| Date fetched |
Epoch osculation |
Inc. [°] |
Ecc. | RA asc node [hr] |
Arg Peri. [°] |
Mean anom [°] |
Mean motion [rev/day] |
Abs. mag |
| Date fetched |
Epoch osculation |
Inc. [°] |
Ecc. | RA asc node [hr] |
Arg Peri. [°] |
Mean anom [°] |
Mean motion [rev/day] |
Abs. mag |
| 2026 May 06 17:57 | 2026 May 05 11:22:35 | 82.9193 | 0.00075 | 8.0148 | 212.4308 | 303.0207 | 14.22531 | – |
| 2026 May 05 17:57 | 2026 May 05 11:22:35 | 82.9193 | 0.00075 | 8.0148 | 212.4308 | 303.0207 | 14.22531 | – |
| 2026 May 04 17:57 | 2026 Apr 30 11:30:33 | 82.9191 | 0.00072 | 8.2826 | 230.3126 | 303.0207 | 14.22531 | – |
| 2026 May 03 17:57 | 2026 Apr 30 11:30:33 | 82.9191 | 0.00072 | 8.2826 | 230.3126 | 303.0207 | 14.22531 | – |
| 2026 May 02 17:57 | 2026 Apr 30 11:30:33 | 82.9191 | 0.00072 | 8.2826 | 230.3126 | 303.0207 | 14.22531 | – |
| 2026 May 01 17:56 | 2026 Apr 30 11:30:33 | 82.9191 | 0.00072 | 8.2826 | 230.3126 | 303.0207 | 14.22531 | – |
| 2026 Apr 30 17:56 | 2026 Apr 30 11:30:33 | 82.9191 | 0.00072 | 8.2826 | 230.3126 | 303.0207 | 14.22531 | – |
| 2026 Apr 29 17:57 | 2026 Apr 24 13:34:58 | 82.9195 | 0.00069 | 8.5997 | 251.5477 | 303.0207 | 14.22531 | – |
| 2026 Apr 28 17:56 | 2026 Apr 24 13:34:58 | 82.9195 | 0.00069 | 8.5997 | 251.5477 | 303.0207 | 14.22531 | – |
| 2026 Apr 27 17:58 | 2026 Apr 24 13:34:58 | 82.9195 | 0.00069 | 8.5997 | 251.5477 | 303.0207 | 14.22531 | – |
| 2026 Apr 26 17:58 | 2026 Apr 24 13:34:58 | 82.9195 | 0.00069 | 8.5997 | 251.5477 | 303.0207 | 14.22531 | – |
| 2026 Apr 25 17:58 | 2026 Apr 24 13:34:58 | 82.9195 | 0.00069 | 8.5997 | 251.5477 | 303.0207 | 14.22531 | – |
| 2026 Apr 24 17:59 | 2026 Apr 24 13:34:58 | 82.9195 | 0.00069 | 8.5997 | 251.5477 | 303.0207 | 14.22531 | – |
| 2026 Apr 23 17:57 | 2026 Apr 19 12:00:28 | 82.9200 | 0.00068 | 8.8713 | 270.2927 | 303.0207 | 14.22531 | – |
| 2026 Apr 22 17:57 | 2026 Apr 19 12:00:28 | 82.9200 | 0.00068 | 8.8713 | 270.2927 | 303.0207 | 14.22531 | – |
| 2026 Apr 21 17:57 | 2026 Apr 19 12:00:28 | 82.9200 | 0.00068 | 8.8713 | 270.2927 | 303.0207 | 14.22531 | – |
| 2026 Apr 20 17:57 | 2026 Apr 19 12:00:28 | 82.9200 | 0.00068 | 8.8713 | 270.2927 | 303.0207 | 14.22531 | – |
| 2026 Apr 19 17:58 | 2026 Apr 19 12:00:28 | 82.9200 | 0.00068 | 8.8713 | 270.2927 | 303.0207 | 14.22531 | – |
| 2026 Apr 18 17:56 | 2026 Apr 13 01:56:34 | 82.9207 | 0.00067 | 9.2154 | 294.1079 | 303.0207 | 14.22531 | – |
| 2026 Apr 16 17:57 | 2026 Apr 13 01:56:34 | 82.9207 | 0.00067 | 9.2154 | 294.1079 | 303.0207 | 14.22531 | – |
| 2026 Apr 14 17:57 | 2026 Apr 13 01:56:34 | 82.9207 | 0.00067 | 9.2154 | 294.1079 | 303.0207 | 14.22531 | – |
| 2026 Apr 13 17:57 | 2026 Apr 13 01:56:34 | 82.9207 | 0.00067 | 9.2154 | 294.1079 | 303.0207 | 14.22531 | – |
| 2026 Apr 12 17:57 | 2026 Apr 08 14:29:11 | 82.9212 | 0.00067 | 9.4554 | 310.8588 | 303.0207 | 14.22531 | – |
| 2026 Apr 11 17:57 | 2026 Apr 08 14:29:11 | 82.9212 | 0.00067 | 9.4554 | 310.8588 | 303.0207 | 14.22531 | – |
| 2026 Apr 10 17:58 | 2026 Apr 08 14:29:11 | 82.9212 | 0.00067 | 9.4554 | 310.8588 | 303.0207 | 14.22531 | – |
| 2026 Apr 09 18:01 | 2026 Apr 08 14:29:11 | 82.9212 | 0.00067 | 9.4554 | 310.8588 | 303.0207 | 14.22531 | – |